Date,TemperatureHighF,TemperatureAvgF,TemperatureLowF,DewpointHighF,DewpointAvgF,DewpointLowF,HumidityHigh,HumidityAvg,HumidityLow,PressureMaxIn,PressureMinIn,WindSpeedMaxMPH,WindSpeedAvgMPH,GustSpeedMaxMPH,PrecipitationSumIn
2012-9-26,86.2,66.0,41.4,42.3,38.4,35.3,80,40,19,29.75,26.73,10,3,10,0.00
2012-9-27,73.9,61.1,47.3,47.4,41.7,37.1,71,50,33,29.75,26.68,7,1,7,0.00
2012-9-28,60.4,60.4,60.4,43.2,43.2,43.2,53,53,53,29.75,29.73,0,0,0,0.00
2012-9-29,90.3,77.9,65.5,39.8,36.9,32.3,38,24,14,29.58,29.55,11,3,11,0.00
2012-9-30,79.3,63.2,53.2,48.5,41.5,34.3,82,46,27,29.76,29.56,24,5,24,0.00
2012-10-1,76.1,55.3,44.1,48.7,37.0,20.4,93,58,14,29.85,26.63,14,4,14,0.00
2012-10-2,83.5,61.6,48.4,41.0,34.5,29.7,59,38,18,29.58,27.09,17,5,17,0.00
2012-10-3,54.3,42.7,33.4,41.3,36.3,31.9,98,80,59,29.83,26.71,19,8,19,0.37
2012-10-4,39.7,36.3,34.7,34.1,28.6,23.5,95,74,59,29.94,29.83,98,10,98,0.37
2012-10-5,41.5,31.3,23.9,22.4,20.1,16.8,82,64,42,29.99,26.92,15,6,15,0.00
2012-10-6,54.7,40.6,27.9,28.5,15.4,7.1,89,40,18,30.02,26.91,9,2,9,0.00
2012-10-7,65.3,43.7,27.5,36.6,25.0,12.1,70,49,27,29.77,29.44,8,2,8,0.00
2012-10-8,57.9,49.1,42.6,41.5,36.1,28.4,81,62,39,29.44,29.22,14,7,14,0.00
2012-10-9,50.9,37.9,34.2,32.5,28.0,22.1,81,68,44,29.69,29.44,20,7,20,0.00
2012-10-10,66.6,41.6,28.8,37.3,28.6,21.2,85,63,25,29.68,29.39,12,4,12,0.00
2012-10-11,48.2,36.3,28.4,32.8,25.0,19.9,87,64,43,29.96,29.66,11,4,11,0.00
2012-10-12,63.9,44.4,27.9,29.1,25.6,19.0,75,51,22,29.94,29.34,16,4,16,0.00
2012-10-13,73.4,51.3,34.5,41.4,35.3,26.9,86,58,24,29.56,29.29,19,4,19,0.00
2012-10-14,79.2,51.4,36.3,41.4,36.6,30.9,90,62,21,29.63,29.53,7,1,7,0.00
2012-10-15,84.9,60.3,43.9,47.7,39.1,33.2,73,50,18,29.54,29.25,13,2,13,0.00
2012-10-16,73.9,58.5,48.0,51.4,46.8,42.8,91,68,36,29.30,28.94,12,2,12,0.05
2012-10-17,54.1,45.1,41.2,51.4,38.8,33.2,93,79,63,29.12,28.92,32,11,32,0.21
2012-10-18,45.3,42.3,39.2,38.6,36.6,33.2,93,80,72,29.56,29.11,38,20,38,1.26
2012-10-19,54.7,41.7,36.9,36.0,32.7,28.4,82,71,48,29.55,29.33,29,7,29,0.00
2012-10-20,73.8,49.1,34.9,46.6,36.3,30.8,86,65,23,29.33,29.18,8,2,8,0.00
2012-10-21,54.3,47.3,42.1,48.3,38.8,32.5,95,73,54,29.69,29.28,20,6,20,0.05
2012-10-22,47.5,42.4,39.6,38.3,33.3,28.8,90,70,51,29.72,29.40,15,6,15,0.02
2012-10-23,50.7,45.1,39.2,49.7,43.1,34.8,98,93,85,29.52,29.27,16,4,16,0.11
2012-10-24,41.4,34.2,28.8,34.9,26.0,21.9,85,72,61,29.70,29.51,13,4,13,0.00
2012-10-25,35.2,32.5,28.4,25.1,22.2,19.8,78,66,59,29.89,29.67,23,7,23,0.00
2012-10-26,36.3,30.8,22.5,20.8,16.7,10.9,68,56,39,29.99,29.87,20,5,20,0.00
2012-10-27,34.2,26.5,19.8,23.8,18.4,10.3,82,71,61,29.88,29.81,12,4,12,0.00
2012-10-28,34.5,30.6,26.6,29.6,25.4,20.7,86,81,78,29.87,29.68,13,6,13,0.00
2012-10-29,57.0,41.2,30.2,38.1,33.3,27.9,92,75,48,29.69,29.62,10,4,10,0.01
2012-10-30,69.3,47.9,38.7,45.3,40.0,35.8,91,76,41,29.65,29.59,8,2,8,0.00
2012-10-31,49.6,40.1,34.2,43.7,36.3,31.5,98,87,74,29.76,29.58,19,5,19,0.01
2012-11-1,66.2,33.7,27.7,31.4,25.3,19.2,86,72,45,29.91,29.62,13,6,13,0.00
2012-11-2,34.5,29.7,26.2,30.1,23.7,18.5,90,78,70,29.72,29.66,11,3,11,0.00
2012-11-3,34.7,31.7,29.7,30.3,26.9,23.1,90,82,70,29.85,29.72,12,4,12,0.00
2012-11-4,33.4,31.4,29.5,29.8,26.6,22.7,89,82,75,29.84,29.70,8,2,8,0.00
2012-11-5,45.5,37.7,32.7,40.6,34.1,29.8,90,87,78,29.84,29.43,21,4,21,0.21
2012-11-6,54.0,41.2,32.2,33.8,28.9,23.7,82,62,39,29.72,29.53,22,6,22,0.00
2012-11-7,57.4,42.9,27.5,31.4,27.5,20.3,81,57,33,29.72,29.35,13,3,13,0.00
2012-11-8,46.0,37.5,28.9,37.8,29.3,24.4,83,72,54,29.76,29.39,24,9,24,0.00
2012-11-9,28.9,26.6,25.5,25.9,21.8,20.5,88,82,78,29.76,29.46,20,9,20,0.00
2012-11-10,30.7,25.2,15.6,27.6,21.1,10.2,88,84,78,29.46,29.31,0,0,0,0.00
2012-11-11,18.5,12.9,6.3,10.2,5.4,-1.3,79,71,63,29.58,29.41,0,0,0,0.00
2012-11-12,30.2,15.1,5.2,15.8,5.5,-4.6,73,65,51,29.76,29.58,0,0,0,0.00
2012-11-13,48.4,27.4,17.6,29.4,18.3,9.2,80,69,46,29.79,29.74,6,0,6,0.12
2012-11-14,54.1,32.2,19.2,30.2,22.9,13.2,82,70,39,29.78,29.64,6,2,6,0.00
2012-11-22,28.0,20.9,15.4,16.9,10.6,5.1,70,64,60,30.02,29.67,21,11,21,0.02
2012-11-23,28.6,17.7,10.8,10.6,6.2,2.5,71,61,40,30.10,29.81,17,4,17,0.00
2012-11-24,40.8,27.6,20.3,30.7,17.2,10.0,78,65,53,29.79,29.40,17,6,17,0.00
2012-11-25,28.0,19.8,6.6,20.3,9.2,-5.2,78,64,42,29.92,29.60,15,6,15,0.00
2012-11-26,35.8,17.7,3.6,16.0,4.6,-6.4,65,57,38,29.97,29.75,10,3,10,0.00
2012-11-27,37.2,24.8,18.1,23.1,16.4,11.0,77,70,54,29.84,29.70,7,2,7,0.00
2012-11-28,36.7,25.3,15.4,26.6,18.1,8.9,83,74,60,29.84,29.62,13,4,13,0.00
2012-11-29,23.4,17.1,11.7,17.7,7.7,1.9,81,66,56,29.71,29.63,13,6,13,0.00
2012-11-30,32.2,25.4,18.9,25.6,19.1,10.4,83,77,69,29.71,29.31,8,3,8,0.00
2012-12-1,44.2,34.1,23.4,36.5,28.1,17.5,86,78,72,29.45,29.28,12,2,12,0.01
2012-12-2,47.7,37.7,27.3,36.4,31.1,22.9,92,78,62,29.44,28.98,8,2,8,0.01
2012-12-3,53.1,41.8,25.2,39.2,26.9,13.6,81,57,31,29.63,28.98,30,7,30,0.04
2012-12-4,30.9,21.0,14.4,13.6,9.1,3.7,66,60,45,29.89,29.62,11,4,11,0.00
2012-12-5,42.1,28.8,18.3,27.1,16.1,6.4,65,59,50,29.78,29.29,12,4,12,0.00
2012-12-6,44.2,32.9,25.5,25.9,19.8,12.7,73,58,40,29.63,29.41,18,4,18,0.00
2012-12-7,25.7,20.1,16.5,14.2,11.9,7.9,76,70,61,29.63,29.52,10,5,10,0.00
2012-12-8,30.2,22.4,7.5,24.4,15.2,-2.0,83,73,63,29.72,29.40,23,7,23,0.00
2012-12-9,14.9,4.4,-1.1,1.0,-6.8,-12.5,64,59,49,29.98,29.69,23,8,23,0.00
2012-12-10,27.9,14.8,0.1,15.3,3.0,-11.3,73,59,48,29.69,29.31,12,4,12,0.00
2012-12-11,24.3,19.1,14.2,16.2,8.6,2.2,73,63,44,29.47,29.23,17,4,17,0.00
2012-12-12,36.7,25.1,18.7,23.7,15.9,10.3,73,68,56,29.50,29.21,12,3,12,0.00
2012-12-13,31.1,19.2,11.5,19.3,10.4,2.3,79,68,54,29.67,29.54,5,3,5,0.00
2012-12-14,23.4,16.1,9.5,17.2,8.4,0.1,78,71,65,29.56,29.33,4,2,4,0.00
2012-12-15,30.2,19.7,10.9,19.5,12.2,3.1,78,72,59,29.43,29.31,11,5,11,0.00
2012-12-16,22.3,17.4,16.2,15.9,9.8,8.7,77,71,69,29.44,29.39,6,2,6,0.00
2012-12-17,24.3,20.9,16.3,17.2,14.1,8.3,77,74,70,29.39,29.16,7,2,7,0.00
2012-12-18,36.5,24.4,18.7,24.2,16.6,10.9,77,72,58,29.34,29.16,14,2,14,0.00
2012-12-19,21.2,14.2,8.8,12.6,2.9,-2.7,73,60,49,29.72,29.34,14,4,14,0.00
2012-12-20,27.3,8.1,-0.8,7.2,-3.8,-11.9,67,58,34,29.76,29.70,4,1,4,0.00
2012-12-21,32.2,12.0,0.1,11.9,0.0,-11.3,66,58,40,29.76,29.61,5,1,5,0.00
2012-12-22,18.1,10.4,3.9,7.0,-1.4,-7.1,66,58,47,29.79,29.60,20,7,20,0.00
2012-12-23,9.5,4.6,-0.9,-4.1,-6.8,-13.8,62,58,52,29.75,29.67,12,5,12,0.00
2012-12-24,12.4,-0.9,-7.1,-6.6,-14.6,-19.5,56,51,36,29.99,29.73,7,2,7,0.00
2012-12-25,17.2,8.4,1.0,-0.9,-4.5,-12.3,60,55,43,30.06,29.89,6,2,6,0.00
2012-12-26,15.4,9.2,4.5,1.4,-2.6,-7.5,62,58,51,29.89,29.69,9,3,9,0.00
2012-12-27,19.2,9.5,2.7,3.1,-2.4,-7.6,63,58,48,29.69,29.64,10,2,10,0.00
2012-12-28,14.4,5.3,-0.8,0.8,-6.4,-12.9,62,58,51,29.68,29.60,6,1,6,0.00
2012-12-29,29.1,7.7,-3.8,7.8,-5.0,-16.1,66,56,35,29.66,29.60,4,0,4,0.00
2012-12-30,31.5,17.3,9.0,17.5,5.7,-5.4,66,60,50,29.75,29.55,19,4,19,0.00
2012-12-31,9.9,5.5,0.7,-4.7,-7.1,-11.6,61,55,49,29.80,29.73,12,2,12,0.00
2013-1-1,27.9,13.6,1.2,19.2,2.9,-11.1,73,62,46,29.76,29.52,12,2,12,0.00